Moscow, Idaho
Current Conditions -  °F | °C
As of 1:53 PM on Monday 24 Nov 2014 (Local Time) from KPUW Reporting Station
Overcast Overcast  
Wind Chill: 33°   Ceiling: 10000
Heat Index: 40°   Visibility: 10mi
Dew Point: 32°   Wind: 13mph
Humidity: 73%   Direction: 150°SSE
Pressure: 30.31"   Gusts: NA
Location:  46.73°N, 117°W
Report Text: KPUW 242153Z AUTO 15011KT 10SM OVC100 04/00 A3031 RMK AO2 SLP281 T00440000
Loading
Personal Weather Stations






























Interactive Weather Map New forecast layout! Learn more

10-Day Weather Forecast

Advertisements
Track Severe Weather on mobile